Time;durP1;ratioP1;P1;durP2;ratioP2;P2;SDS_P1;SDS_P2;PMS_P1;PMS_P2;Temp;Humidity;BMP_temperature;BMP_pressure;BME280_temperature;BME280_humidity;BME280_pressure;Samples;Min_cycle;Max_cycle;Signal;HPM_P1;HPM_P2
2023/05/28 00:02:18;;;;;;;;;;;;;;;22.38;51.60;100735.04;103206;1289;61386;-83
2023/05/28 00:04:43;;;;;;;;;;;;;;;22.38;51.49;100726.63;103174;1289;61492;-83
2023/05/28 00:07:10;;;;;;;;;;;;;;;22.38;51.60;100723.55;103293;1287;62498;-83
2023/05/28 00:09:36;;;;;;;;;;;;;;;22.37;51.59;100721.80;103244;1287;62477;-83
2023/05/28 00:12:02;;;;;;;;;;;;;;;22.37;51.58;100717.67;103211;1292;61409;-83
2023/05/28 00:14:27;;;;;;;;;;;;;;;22.37;51.57;100720.71;103203;1290;61371;-83
2023/05/28 00:16:53;;;;;;;;;;;;;;;22.37;51.49;100722.87;103475;1285;61326;-84
2023/05/28 00:19:18;;;;;;;;;;;;;;;22.38;51.61;100723.58;103625;1287;61487;-83
2023/05/28 00:21:44;;;;;;;;;;;;;;;22.37;51.65;100723.06;103572;1286;61330;-83
2023/05/28 00:24:10;;;;;;;;;;;;;;;22.37;51.60;100719.86;103564;1286;61373;-83
2023/05/28 00:26:37;;;;;;;;;;;;;;;22.37;51.66;100721.66;103453;1285;61341;-83
2023/05/28 00:29:03;;;;;;;;;;;;;;;22.37;51.58;100715.91;103523;1287;61403;-84
2023/05/28 00:31:30;;;;;;;;;;;;;;;22.37;51.59;100715.70;103622;1284;61454;-83
2023/05/28 00:33:56;;;;;;;;;;;;;;;22.37;51.57;100709.27;103684;1286;61400;-83
2023/05/28 00:36:22;;;;;;;;;;;;;;;22.36;51.58;100708.98;103422;1286;61435;-83
2023/05/28 00:38:48;;;;;;;;;;;;;;;22.36;51.68;100711.29;103350;1287;61387;-83
2023/05/28 00:41:18;;;;;;;;;;;;;;;22.36;51.49;100711.11;103632;1285;61721;-83
2023/05/28 00:43:43;;;;;;;;;;;;;;;22.36;51.50;100712.02;103678;1288;62621;-83
2023/05/28 00:46:10;;;;;;;;;;;;;;;22.36;51.63;100707.75;103415;1286;61413;-83
2023/05/28 00:48:36;;;;;;;;;;;;;;;22.36;51.67;100709.21;103523;1286;61310;-84
2023/05/28 00:51:01;;;;;;;;;;;;;;;22.36;51.44;100711.34;103569;1286;61456;-83
2023/05/28 00:53:27;;;;;;;;;;;;;;;22.36;51.64;100710.45;103434;1286;62476;-83
2023/05/28 00:55:53;;;;;;;;;;;;;;;22.36;51.58;100714.01;103648;1289;61380;-82
2023/05/28 00:58:19;;;;;;;;;;;;;;;22.36;51.67;100708.98;103220;1289;61419;-83
2023/05/28 01:00:45;;;;;;;;;;;;;;;22.36;51.64;100706.88;102997;1289;74451;-82
2023/05/28 01:03:11;;;;;;;;;;;;;;;22.36;51.65;100704.86;103085;1289;62235;-83
2023/05/28 01:05:38;;;;;;;;;;;;;;;22.35;51.60;100706.02;103184;1293;62564;-83
2023/05/28 01:08:04;;;;;;;;;;;;;;;22.36;51.66;100708.31;103220;1289;61554;-83
2023/05/28 01:10:31;;;;;;;;;;;;;;;22.36;51.67;100707.08;102968;1289;61742;-83
2023/05/28 01:12:56;;;;;;;;;;;;;;;22.35;51.63;100709.58;103150;1292;61977;-83
2023/05/28 01:15:23;;;;;;;;;;;;;;;22.35;51.60;100707.42;103179;1288;61560;-84
2023/05/28 01:17:49;;;;;;;;;;;;;;;22.35;51.51;100709.95;103235;1289;61571;-83
2023/05/28 01:20:15;;;;;;;;;;;;;;;22.35;51.61;100707.46;102990;1288;61347;-83
2023/05/28 01:22:45;;;;;;;;;;;;;;;22.35;51.57;100703.50;103160;1289;62431;-83
2023/05/28 01:25:12;;;;;;;;;;;;;;;22.35;51.61;100702.79;103169;1289;62383;-83
2023/05/28 01:27:40;;;;;;;;;;;;;;;22.35;51.60;100701.73;102944;1288;61404;-83
2023/05/28 01:30:09;;;;;;;;;;;;;;;22.35;51.56;100698.14;103268;1286;75080;-83
2023/05/28 01:32:38;;;;;;;;;;;;;;;22.34;51.63;100701.21;103550;1286;61890;-83
2023/05/28 01:35:04;;;;;;;;;;;;;;;22.35;51.56;100700.67;103496;1286;61537;-84
2023/05/28 01:37:30;;;;;;;;;;;;;;;22.35;51.63;100701.74;103540;1287;61313;-83
2023/05/28 01:39:56;;;;;;;;;;;;;;;22.35;51.71;100699.95;103499;1287;61444;-82
2023/05/28 01:42:22;;;;;;;;;;;;;;;22.34;51.66;100694.03;103588;1285;61323;-83
2023/05/28 01:44:48;;;;;;;;;;;;;;;22.34;51.68;100695.12;103496;1286;61453;-83
2023/05/28 01:47:13;;;;;;;;;;;;;;;22.34;51.67;100697.29;103529;1290;62403;-83
2023/05/28 01:49:39;;;;;;;;;;;;;;;22.34;51.82;100699.98;103515;1286;61342;-84
2023/05/28 01:52:05;;;;;;;;;;;;;;;22.34;51.47;100699.59;103621;1287;75373;-83
2023/05/28 01:54:31;;;;;;;;;;;;;;;22.34;51.66;100699.26;103498;1286;61265;-83
2023/05/28 01:56:57;;;;;;;;;;;;;;;22.34;51.56;100693.89;103563;1286;61364;-83
2023/05/28 01:59:22;;;;;;;;;;;;;;;22.33;51.57;100691.44;103539;1286;61419;-83
2023/05/28 02:01:48;;;;;;;;;;;;;;;22.33;51.68;100693.23;103480;1286;61786;-83
2023/05/28 02:04:14;;;;;;;;;;;;;;;22.34;51.67;100691.95;103472;1286;61348;-82
2023/05/28 02:06:43;;;;;;;;;;;;;;;22.33;51.71;100688.21;103506;1286;61327;-83
2023/05/28 02:09:09;;;;;;;;;;;;;;;22.33;51.62;100688.38;103480;1286;61457;-83
2023/05/28 02:11:35;;;;;;;;;;;;;;;22.33;51.64;100688.92;103550;1290;61433;-83
2023/05/28 02:14:01;;;;;;;;;;;;;;;22.33;51.59;100693.04;103554;1286;61425;-82
2023/05/28 02:16:27;;;;;;;;;;;;;;;22.33;51.64;100687.69;103541;1286;61297;-83
2023/05/28 02:18:54;;;;;;;;;;;;;;;22.33;51.64;100686.80;103632;1285;61513;-83
2023/05/28 02:21:19;;;;;;;;;;;;;;;22.33;51.66;100687.17;103501;1286;61391;-82
2023/05/28 02:23:45;;;;;;;;;;;;;;;22.33;51.76;100682.17;103506;1287;61358;-82
2023/05/28 02:26:11;;;;;;;;;;;;;;;22.33;51.73;100683.75;103535;1290;61377;-83
2023/05/28 02:28:36;;;;;;;;;;;;;;;22.33;51.67;100682.34;103556;1292;61294;-83
2023/05/28 02:31:02;;;;;;;;;;;;;;;22.33;51.65;100683.59;103486;1286;62568;-83
2023/05/28 02:33:27;;;;;;;;;;;;;;;22.33;51.58;100684.12;103562;1286;61360;-83
2023/05/28 02:35:53;;;;;;;;;;;;;;;22.32;51.71;100679.84;103554;1286;61406;-83
2023/05/28 02:38:19;;;;;;;;;;;;;;;22.32;51.62;100678.60;103554;1291;61298;-83
2023/05/28 02:40:46;;;;;;;;;;;;;;;22.32;51.63;100676.84;103523;1291;61362;-82
2023/05/28 02:43:11;;;;;;;;;;;;;;;22.32;51.61;100677.39;103571;1286;62463;-83
2023/05/28 02:45:37;;;;;;;;;;;;;;;22.32;51.59;100682.93;103650;1291;61387;-83
2023/05/28 02:48:03;;;;;;;;;;;;;;;22.32;51.69;100684.02;103503;1286;62512;-83
2023/05/28 02:50:28;;;;;;;;;;;;;;;22.32;51.61;100686.52;103515;1286;61388;-83
2023/05/28 02:52:54;;;;;;;;;;;;;;;22.32;51.68;100693.34;103418;1291;62456;-83
2023/05/28 02:55:20;;;;;;;;;;;;;;;22.32;51.75;100695.83;103535;1286;61391;-83
2023/05/28 02:57:46;;;;;;;;;;;;;;;22.32;51.68;100696.38;103432;1286;61438;-83
2023/05/28 03:00:12;;;;;;;;;;;;;;;22.32;51.51;100698.89;103628;1285;61361;-83
2023/05/28 03:02:38;;;;;;;;;;;;;;;22.32;51.72;100701.05;103531;1284;61377;-83
2023/05/28 03:05:03;;;;;;;;;;;;;;;22.32;51.64;100703.23;103554;1292;61361;-83
2023/05/28 03:07:29;;;;;;;;;;;;;;;22.32;51.73;100706.59;103614;1286;61841;-83
2023/05/28 03:09:54;;;;;;;;;;;;;;;22.32;51.66;100707.16;103392;1286;61480;-84
2023/05/28 03:12:20;;;;;;;;;;;;;;;22.32;51.65;100707.48;103512;1287;61383;-83
2023/05/28 03:14:45;;;;;;;;;;;;;;;22.32;51.70;100704.98;103731;1286;61330;-83
2023/05/28 03:17:11;;;;;;;;;;;;;;;22.32;51.59;100705.71;103530;1290;61393;-83
2023/05/28 03:19:37;;;;;;;;;;;;;;;22.31;51.66;100706.27;103384;1286;61881;-84
2023/05/28 03:22:03;;;;;;;;;;;;;;;22.32;51.71;100706.96;103503;1284;61317;-83
2023/05/28 03:24:30;;;;;;;;;;;;;;;22.32;51.65;100707.86;103676;1289;62506;-83
2023/05/28 03:26:57;;;;;;;;;;;;;;;22.32;51.69;100707.35;103510;1289;61676;-83
2023/05/28 03:29:22;;;;;;;;;;;;;;;22.32;51.73;100708.06;103466;1286;61352;-83
2023/05/28 03:31:48;;;;;;;;;;;;;;;22.32;51.64;100709.42;103567;1290;61403;-83
2023/05/28 03:34:13;;;;;;;;;;;;;;;22.32;51.71;100706.98;103459;1286;62886;-82
2023/05/28 03:36:42;;;;;;;;;;;;;;;22.32;51.74;100706.06;103508;1286;61383;-83
2023/05/28 03:39:08;;;;;;;;;;;;;;;22.32;51.71;100698.90;103542;1287;62340;-84
2023/05/28 03:41:34;;;;;;;;;;;;;;;22.32;51.63;100701.74;103566;1286;61550;-83
2023/05/28 03:44:00;;;;;;;;;;;;;;;22.32;51.72;100699.96;103427;1288;61673;-83
2023/05/28 03:46:25;;;;;;;;;;;;;;;22.32;51.73;100701.19;103437;1286;61467;-83
2023/05/28 03:48:51;;;;;;;;;;;;;;;22.32;51.64;100706.94;103410;1286;61321;-83
2023/05/28 03:51:16;;;;;;;;;;;;;;;22.32;51.63;100712.48;103499;1286;62689;-83
2023/05/28 03:53:42;;;;;;;;;;;;;;;22.33;51.70;100716.23;103616;1286;61375;-83
2023/05/28 03:56:07;;;;;;;;;;;;;;;22.33;51.64;100712.09;103511;1291;61293;-84
2023/05/28 03:58:33;;;;;;;;;;;;;;;22.33;51.66;100715.15;103535;1286;61403;-84
2023/05/28 04:00:59;;;;;;;;;;;;;;;22.33;51.77;100718.89;103642;1290;61281;-83
2023/05/28 04:03:26;;;;;;;;;;;;;;;22.33;51.72;100717.44;103513;1286;61262;-83
2023/05/28 04:05:52;;;;;;;;;;;;;;;22.33;51.60;100722.11;103610;1287;61383;-83
2023/05/28 04:08:17;;;;;;;;;;;;;;;22.33;51.71;100729.65;103468;1286;61371;-83
2023/05/28 04:10:43;;;;;;;;;;;;;;;22.33;51.70;100732.86;103544;1287;62634;-83
2023/05/28 04:13:08;;;;;;;;;;;;;;;22.33;51.80;100737.52;103647;1289;61359;-83
2023/05/28 04:15:34;;;;;;;;;;;;;;;22.33;51.65;100733.39;103393;1288;61830;-83
2023/05/28 04:18:00;;;;;;;;;;;;;;;22.33;51.65;100733.06;103554;1286;72523;-83
2023/05/28 04:20:25;;;;;;;;;;;;;;;22.33;51.73;100728.01;103550;1286;61457;-83
2023/05/28 04:22:51;;;;;;;;;;;;;;;22.33;51.70;100731.77;103373;1286;61530;-83
2023/05/28 04:25:18;;;;;;;;;;;;;;;22.33;51.76;100730.38;103529;1286;61444;-83
2023/05/28 04:27:44;;;;;;;;;;;;;;;22.33;51.72;100735.39;103583;1290;62382;-83
2023/05/28 04:30:12;;;;;;;;;;;;;;;22.33;51.70;100740.20;103513;1290;61378;-83
2023/05/28 04:32:39;;;;;;;;;;;;;;;22.33;51.65;100748.80;103517;1286;62453;-83
2023/05/28 04:35:05;;;;;;;;;;;;;;;22.34;51.58;100747.35;103619;1287;61922;-83
2023/05/28 04:37:33;;;;;;;;;;;;;;;22.33;51.73;100748.27;103554;1286;62441;-83
2023/05/28 04:39:58;;;;;;;;;;;;;;;22.33;51.68;100749.69;103666;1289;61447;-83
2023/05/28 04:42:24;;;;;;;;;;;;;;;22.33;51.65;100747.01;103384;1287;61483;-83
2023/05/28 04:44:49;;;;;;;;;;;;;;;22.33;51.73;100748.98;103522;1287;61931;-83
2023/05/28 04:47:15;;;;;;;;;;;;;;;22.33;51.64;100743.80;103414;1292;61383;-82
2023/05/28 04:49:41;;;;;;;;;;;;;;;22.33;51.76;100744.33;103504;1289;62496;-83
2023/05/28 04:52:08;;;;;;;;;;;;;;;22.33;51.77;100744.85;103523;1292;74414;-83
2023/05/28 04:54:34;;;;;;;;;;;;;;;22.33;51.60;100742.73;103555;1286;61853;-83
2023/05/28 04:57:01;;;;;;;;;;;;;;;22.34;51.65;100736.41;103389;1286;61483;-84
2023/05/28 04:59:28;;;;;;;;;;;;;;;22.33;51.55;100742.73;103674;1288;72733;-83
2023/05/28 05:01:54;;;;;;;;;;;;;;;22.33;51.68;100744.35;103669;1289;61368;-83
2023/05/28 05:04:21;;;;;;;;;;;;;;;22.33;51.76;100746.30;103553;1285;61461;-82
2023/05/28 05:06:46;;;;;;;;;;;;;;;22.33;51.60;100749.90;103657;1285;61418;-83
2023/05/28 05:09:14;;;;;;;;;;;;;;;22.33;51.55;100753.13;103670;1286;62274;-83
2023/05/28 05:11:39;;;;;;;;;;;;;;;22.33;51.66;100752.55;103372;1284;62859;-83
2023/05/28 05:14:07;;;;;;;;;;;;;;;22.33;51.62;100749.17;103631;1287;61729;-82
2023/05/28 05:16:32;;;;;;;;;;;;;;;22.33;51.74;100744.19;103409;1287;61448;-83
2023/05/28 05:18:59;;;;;;;;;;;;;;;22.33;51.63;100742.92;103497;1289;62036;-83
2023/05/28 05:21:24;;;;;;;;;;;;;;;22.33;51.70;100739.30;103655;1289;61474;-82
2023/05/28 05:23:50;;;;;;;;;;;;;;;22.33;51.66;100744.16;103548;1286;62569;-83
2023/05/28 05:26:18;;;;;;;;;;;;;;;22.33;51.69;100744.33;103410;1291;61269;-83
2023/05/28 05:28:44;;;;;;;;;;;;;;;22.33;51.76;100747.03;103339;1286;61232;-83
2023/05/28 05:31:13;;;;;;;;;;;;;;;22.33;51.72;100748.47;103533;1290;61384;-83
2023/05/28 05:33:40;;;;;;;;;;;;;;;22.33;51.75;100751.17;103636;1290;75546;-83
2023/05/28 05:36:07;;;;;;;;;;;;;;;22.33;51.63;100754.20;103471;1292;61368;-83
2023/05/28 05:38:32;;;;;;;;;;;;;;;22.33;51.74;100755.27;103541;1292;61285;-83
2023/05/28 05:40:58;;;;;;;;;;;;;;;22.33;51.67;100755.27;103674;1286;61457;-84
2023/05/28 05:43:23;;;;;;;;;;;;;;;22.33;51.65;100757.61;103562;1292;61444;-84
2023/05/28 05:45:50;;;;;;;;;;;;;;;22.33;51.70;100754.92;103540;1290;62435;-84
2023/05/28 05:48:16;;;;;;;;;;;;;;;22.33;51.65;100755.64;103610;1285;61409;-84
2023/05/28 05:50:51;;;;;;;;;;;;;;;22.33;51.68;100761.02;103511;1290;61476;-84
2023/05/28 05:53:16;;;;;;;;;;;;;;;22.33;51.70;100760.65;103569;1292;72499;-83
2023/05/28 05:55:42;;;;;;;;;;;;;;;22.33;51.66;100759.79;103503;1286;62516;-83
2023/05/28 05:58:08;;;;;;;;;;;;;;;22.33;51.65;100765.32;103495;1289;61460;-83
2023/05/28 06:00:33;;;;;;;;;;;;;;;22.33;51.70;100763.71;103517;1287;62452;-84
2023/05/28 06:03:00;;;;;;;;;;;;;;;22.33;51.58;100764.63;103554;1286;62676;-83
2023/05/28 06:05:26;;;;;;;;;;;;;;;22.33;51.69;100764.09;103588;1285;73295;-84
2023/05/28 06:07:52;;;;;;;;;;;;;;;22.33;51.65;100760.33;103642;1289;61292;-84
2023/05/28 06:10:18;;;;;;;;;;;;;;;22.33;51.56;100766.05;103767;1286;61371;-84
2023/05/28 06:12:43;;;;;;;;;;;;;;;22.33;51.62;100763.16;103558;1291;61435;-83
2023/05/28 06:15:09;;;;;;;;;;;;;;;22.33;51.60;100765.52;103551;1292;62576;-83
2023/05/28 06:17:35;;;;;;;;;;;;;;;22.33;51.60;100768.38;103706;1289;61302;-84
2023/05/28 06:20:00;;;;;;;;;;;;;;;22.32;51.68;100769.13;103503;1286;75282;-83
2023/05/28 06:22:26;;;;;;;;;;;;;;;22.33;51.58;100769.13;103606;1286;61401;-84
2023/05/28 06:24:52;;;;;;;;;;;;;;;22.33;51.67;100768.38;103555;1286;61357;-83
2023/05/28 06:27:19;;;;;;;;;;;;;;;22.33;51.74;100770.70;103501;1290;61447;-83
2023/05/28 06:29:45;;;;;;;;;;;;;;;22.33;51.66;100770.36;103550;1286;61428;-84
2023/05/28 06:32:13;;;;;;;;;;;;;;;22.34;51.79;100771.36;103766;1289;61275;-83
2023/05/28 06:34:39;;;;;;;;;;;;;;;22.34;51.66;100775.83;103466;1286;61368;-84
2023/05/28 06:37:04;;;;;;;;;;;;;;;22.34;51.68;100776.01;103409;1287;61333;-83
2023/05/28 06:39:30;;;;;;;;;;;;;;;22.34;51.69;100778.49;103546;1290;62541;-83
2023/05/28 06:41:56;;;;;;;;;;;;;;;22.34;51.67;100774.38;103263;1294;61362;-84
2023/05/28 06:44:22;;;;;;;;;;;;;;;22.35;51.62;100779.20;103042;1296;61464;-83
2023/05/28 06:46:47;;;;;;;;;;;;;;;22.35;51.55;100780.06;103259;1290;61626;-84
2023/05/28 06:49:14;;;;;;;;;;;;;;;22.35;51.63;100780.59;103213;1290;73526;-83
2023/05/28 06:51:40;;;;;;;;;;;;;;;22.35;51.67;100776.86;103248;1289;62436;-83
2023/05/28 06:54:05;;;;;;;;;;;;;;;22.35;51.71;100776.48;103144;1289;61277;-83
2023/05/28 06:56:31;;;;;;;;;;;;;;;22.35;51.58;100772.86;103155;1289;62556;-83
2023/05/28 06:58:56;;;;;;;;;;;;;;;22.35;51.57;100771.98;103044;1289;61436;-83
2023/05/28 07:01:23;;;;;;;;;;;;;;;22.36;51.52;100778.55;102957;1296;74078;-83
2023/05/28 07:03:49;;;;;;;;;;;;;;;22.36;51.71;100782.15;103223;1293;61375;-82
2023/05/28 07:06:14;;;;;;;;;;;;;;;22.36;51.58;100781.45;103172;1288;63630;-82
2023/05/28 07:08:44;;;;;;;;;;;;;;;22.36;51.65;100780.20;102378;1289;1174595;-82
2023/05/28 07:11:13;;;;;;;;;;;;;;;22.37;51.63;100788.55;103140;1290;72572;-84
2023/05/28 07:13:39;;;;;;;;;;;;;;;22.37;51.47;100789.44;103338;1290;74438;-82
2023/05/28 07:16:06;;;;;;;;;;;;;;;22.37;51.59;100793.89;103529;1289;62715;-83
2023/05/28 07:18:31;;;;;;;;;;;;;;;22.37;51.58;100795.69;103563;1291;61303;-83
2023/05/28 07:20:57;;;;;;;;;;;;;;;22.37;51.57;100798.90;103490;1290;62523;-83
2023/05/28 07:23:22;;;;;;;;;;;;;;;22.37;51.63;100796.20;103615;1286;61761;-84
2023/05/28 07:25:48;;;;;;;;;;;;;;;22.37;51.62;100794.23;103598;1292;61338;-83
2023/05/28 07:28:13;;;;;;;;;;;;;;;22.37;51.63;100794.77;103412;1285;62222;-83
2023/05/28 07:30:42;;;;;;;;;;;;;;;22.38;51.49;100789.54;103597;1287;61275;-83
2023/05/28 07:33:08;;;;;;;;;;;;;;;22.38;51.72;100791.33;103511;1285;72383;-83
2023/05/28 07:35:34;;;;;;;;;;;;;;;22.38;51.66;100791.48;103558;1291;62443;-83
2023/05/28 07:38:01;;;;;;;;;;;;;;;22.38;51.70;100788.41;103470;1286;61397;-83
2023/05/28 07:40:26;;;;;;;;;;;;;;;22.39;51.66;100784.44;103670;1285;61378;-83
2023/05/28 07:42:52;;;;;;;;;;;;;;;22.38;51.64;100786.81;103471;1292;61348;-83
2023/05/28 07:45:17;;;;;;;;;;;;;;;22.39;51.58;100786.25;103477;1289;61374;-83
2023/05/28 07:47:44;;;;;;;;;;;;;;;22.39;51.74;100784.60;103613;1289;61677;-83
2023/05/28 07:50:10;;;;;;;;;;;;;;;22.39;51.59;100784.40;103437;1291;61502;-83
2023/05/28 07:52:36;;;;;;;;;;;;;;;22.39;51.62;100786.94;103672;1289;62378;-84
2023/05/28 07:55:02;;;;;;;;;;;;;;;22.39;51.66;100786.73;103410;1290;61375;-82
2023/05/28 07:57:28;;;;;;;;;;;;;;;22.40;51.60;100784.55;103463;1289;61389;-83
2023/05/28 07:59:54;;;;;;;;;;;;;;;22.40;51.59;100786.52;103462;1289;62643;-82
2023/05/28 08:02:19;;;;;;;;;;;;;;;22.40;51.65;100786.35;103814;1286;61396;-83
2023/05/28 08:04:45;;;;;;;;;;;;;;;22.40;51.59;100790.23;104026;1284;61627;-83
2023/05/28 08:07:12;;;;;;;;;;;;;;;22.41;51.54;100790.02;103712;1289;61394;-83
2023/05/28 08:09:38;;;;;;;;;;;;;;;22.41;51.61;100782.88;103521;1290;75456;-82
2023/05/28 08:12:04;;;;;;;;;;;;;;;22.41;51.52;100784.27;103687;1289;61355;-84
2023/05/28 08:14:30;;;;;;;;;;;;;;;22.41;51.52;100779.59;103598;1289;61476;-84
2023/05/28 08:16:55;;;;;;;;;;;;;;;22.41;51.62;100779.76;103489;1292;61377;-84
2023/05/28 08:19:21;;;;;;;;;;;;;;;22.41;51.62;100776.90;103409;1284;62423;-84
2023/05/28 08:21:46;;;;;;;;;;;;;;;22.42;51.68;100775.79;103463;1291;61429;-83
2023/05/28 08:24:12;;;;;;;;;;;;;;;22.41;51.58;100777.42;103923;1287;61337;-82
2023/05/28 08:26:37;;;;;;;;;;;;;;;22.41;51.64;100780.83;103805;1287;61292;-83
2023/05/28 08:29:04;;;;;;;;;;;;;;;22.41;51.59;100778.48;103941;1287;61327;-83
2023/05/28 08:31:33;;;;;;;;;;;;;;;22.42;51.59;100779.55;103577;1286;61327;-83
2023/05/28 08:33:58;;;;;;;;;;;;;;;22.42;51.65;100778.27;103635;1292;61477;-83
2023/05/28 08:36:24;;;;;;;;;;;;;;;22.42;51.62;100777.55;103733;1286;61387;-83
2023/05/28 08:38:50;;;;;;;;;;;;;;;22.42;51.64;100777.90;103574;1292;61390;-83
2023/05/28 08:41:15;;;;;;;;;;;;;;;22.43;51.49;100778.02;103600;1288;61380;-83
2023/05/28 08:43:41;;;;;;;;;;;;;;;22.43;51.63;100778.39;103560;1289;61742;-83
2023/05/28 08:46:06;;;;;;;;;;;;;;;22.43;51.60;100777.84;103426;1289;61161;-82
2023/05/28 08:48:33;;;;;;;;;;;;;;;22.43;51.62;100777.48;103509;1290;61403;-83
2023/05/28 08:50:58;;;;;;;;;;;;;;;22.43;51.60;100779.79;103409;1289;62380;-83
2023/05/28 08:53:25;;;;;;;;;;;;;;;22.43;51.63;100778.52;103449;1301;62499;-83
2023/05/28 08:55:51;;;;;;;;;;;;;;;22.43;51.62;100775.88;103556;1289;61464;-83
2023/05/28 08:58:18;;;;;;;;;;;;;;;22.43;51.61;100776.20;103493;1289;62507;-83
2023/05/28 09:00:43;;;;;;;;;;;;;;;22.44;51.61;100774.73;103616;1289;61448;-83
2023/05/28 09:03:09;;;;;;;;;;;;;;;22.44;51.52;100773.99;103926;1289;62079;-83
2023/05/28 09:05:36;;;;;;;;;;;;;;;22.43;51.52;100772.97;103481;1289;62533;-84
2023/05/28 09:08:03;;;;;;;;;;;;;;;22.43;51.59;100776.91;103673;1289;61320;-83
2023/05/28 09:10:29;;;;;;;;;;;;;;;22.44;51.55;100775.79;103570;1289;61247;-83
2023/05/28 09:12:59;;;;;;;;;;;;;;;22.43;51.54;100774.58;103699;1288;61477;-83
2023/05/28 09:15:25;;;;;;;;;;;;;;;22.44;51.52;100770.96;103458;1287;74530;-83
2023/05/28 09:17:50;;;;;;;;;;;;;;;22.43;51.43;100770.64;103587;1286;61313;-83
2023/05/28 09:20:16;;;;;;;;;;;;;;;22.44;51.58;100771.88;103530;1289;61512;-83
2023/05/28 09:22:46;;;;;;;;;;;;;;;22.44;51.61;100767.00;103395;1289;61332;-83
2023/05/28 09:25:11;;;;;;;;;;;;;;;22.44;51.59;100767.55;103542;1290;74280;-83
2023/05/28 09:27:37;;;;;;;;;;;;;;;22.44;51.64;100763.78;103546;1292;61361;-83
2023/05/28 09:30:07;;;;;;;;;;;;;;;22.45;51.58;100768.06;103552;1287;62566;-83
2023/05/28 09:32:36;;;;;;;;;;;;;;;22.45;51.60;100763.93;103600;1292;72206;-83
2023/05/28 09:35:02;;;;;;;;;;;;;;;22.44;51.55;100768.43;103645;1285;74262;-82
2023/05/28 09:37:27;;;;;;;;;;;;;;;22.45;51.53;100766.58;103468;1286;61356;-83
2023/05/28 09:40:00;;;;;;;;;;;;;;;22.46;51.60;100772.08;103498;1286;61429;-82
2023/05/28 09:42:26;;;;;;;;;;;;;;;22.46;51.55;100770.12;103521;1291;73772;-83
2023/05/28 09:44:52;;;;;;;;;;;;;;;22.47;51.55;100769.70;103473;1289;61427;-82
2023/05/28 09:47:18;;;;;;;;;;;;;;;22.46;51.64;100767.38;103504;1290;61746;-83
2023/05/28 09:49:45;;;;;;;;;;;;;;;22.47;51.65;100766.79;103527;1289;62454;-84
2023/05/28 09:52:20;;;;;;;;;;;;;;;22.47;51.63;100766.56;103634;1286;61399;-83
2023/05/28 09:54:51;;;;;;;;;;;;;;;22.48;51.70;100762.97;103554;1289;74479;-84
2023/05/28 09:57:17;;;;;;;;;;;;;;;22.47;51.51;100760.83;103535;1287;61381;-83
2023/05/28 09:59:44;;;;;;;;;;;;;;;22.48;51.56;100757.73;103485;1290;61357;-83
2023/05/28 10:02:25;;;;;;;;;;;;;;;22.49;51.52;100750.34;103369;1292;62367;-83
2023/05/28 10:04:54;;;;;;;;;;;;;;;22.49;51.55;100752.30;103499;1285;75410;-83
2023/05/28 10:07:20;;;;;;;;;;;;;;;22.49;51.60;100748.16;103587;1284;61981;-83
2023/05/28 10:09:45;;;;;;;;;;;;;;;22.49;51.45;100745.96;103475;1292;61400;-83
2023/05/28 10:12:19;;;;;;;;;;;;;;;22.50;51.60;100740.55;103601;1286;62499;-83
2023/05/28 10:14:45;;;;;;;;;;;;;;;22.50;51.54;100735.31;103502;1287;66760;-83
2023/05/28 10:17:11;;;;;;;;;;;;;;;22.51;51.44;100742.64;103481;1291;61455;-84
2023/05/28 10:19:37;;;;;;;;;;;;;;;22.51;51.51;100736.16;103504;1289;62814;-83
2023/05/28 10:22:02;;;;;;;;;;;;;;;22.51;51.54;100733.50;103608;1288;61292;-82
2023/05/28 10:24:28;;;;;;;;;;;;;;;22.52;51.37;100738.27;103546;1299;61364;-83
2023/05/28 10:26:53;;;;;;;;;;;;;;;22.51;51.43;100732.54;103601;1289;61462;-83
2023/05/28 10:29:19;;;;;;;;;;;;;;;22.52;51.44;100729.66;103551;1287;61380;-83
2023/05/28 10:31:45;;;;;;;;;;;;;;;22.52;51.45;100728.21;103399;1289;61457;-83
2023/05/28 10:34:14;;;;;;;;;;;;;;;22.52;51.42;100724.60;103654;1287;61246;-82
2023/05/28 10:36:49;;;;;;;;;;;;;;;22.52;51.43;100723.52;103499;1290;74448;-83
2023/05/28 10:39:16;;;;;;;;;;;;;;;22.52;51.49;100716.19;103670;1288;61352;-82
2023/05/28 10:41:42;;;;;;;;;;;;;;;22.52;51.59;100715.28;103528;1286;61681;-83
2023/05/28 10:44:07;;;;;;;;;;;;;;;22.52;51.38;100714.02;103509;1292;61717;-83
2023/05/28 10:46:36;;;;;;;;;;;;;;;22.53;51.55;100711.11;103663;1288;61413;-83
2023/05/28 10:49:05;;;;;;;;;;;;;;;22.52;51.35;100706.67;103647;1288;61325;-81
2023/05/28 10:51:49;;;;;;;;;;;;;;;22.52;51.40;100701.80;103483;1286;61308;-83
2023/05/28 10:54:15;;;;;;;;;;;;;;;22.53;51.45;100700.66;103707;1288;73524;-82
2023/05/28 10:57:00;;;;;;;;;;;;;;;22.53;51.29;100695.46;103475;1289;61291;-82
2023/05/28 10:59:37;;;;;;;;;;;;;;;22.53;51.46;100690.46;103691;1285;61378;-83
2023/05/28 11:02:03;;;;;;;;;;;;;;;22.53;51.41;100688.33;103288;1286;61374;-83
2023/05/28 11:04:32;;;;;;;;;;;;;;;22.53;51.41;100685.46;103582;1291;61466;-83
2023/05/28 11:06:57;;;;;;;;;;;;;;;22.52;51.35;100681.89;103547;1288;75866;-83
2023/05/28 11:09:23;;;;;;;;;;;;;;;22.53;51.42;100685.21;103465;1292;61355;-83
2023/05/28 11:11:48;;;;;;;;;;;;;;;22.53;51.38;100687.58;103488;1286;61384;-83
2023/05/28 11:14:15;;;;;;;;;;;;;;;22.53;51.41;100685.23;103484;1291;61384;-83
2023/05/28 11:16:40;;;;;;;;;;;;;;;22.53;51.36;100678.59;103267;1292;61381;-83
2023/05/28 11:19:08;;;;;;;;;;;;;;;22.53;51.39;100681.70;103533;1287;61451;-83
2023/05/28 11:21:35;;;;;;;;;;;;;;;22.53;51.42;100683.84;103540;1289;61273;-83
2023/05/28 11:24:01;;;;;;;;;;;;;;;22.53;51.35;100689.60;103465;1291;61390;-84
2023/05/28 11:26:27;;;;;;;;;;;;;;;22.53;51.43;100682.77;103488;1286;61851;-83
2023/05/28 11:28:53;;;;;;;;;;;;;;;22.52;51.47;100691.76;103474;1291;61387;-83
2023/05/28 11:31:18;;;;;;;;;;;;;;;22.52;51.34;100681.19;103461;1286;62447;-83
2023/05/28 11:33:44;;;;;;;;;;;;;;;22.53;51.36;100684.20;103496;1289;61477;-84
2023/05/28 11:36:11;;;;;;;;;;;;;;;22.53;51.33;100680.80;103576;1286;61358;-84
2023/05/28 11:38:38;;;;;;;;;;;;;;;22.52;51.32;100678.67;103471;1291;72820;-84
2023/05/28 11:41:03;;;;;;;;;;;;;;;22.52;51.36;100676.52;103455;1286;61279;-84
2023/05/28 11:43:29;;;;;;;;;;;;;;;22.52;51.33;100665.75;103436;1293;62503;-84
2023/05/28 11:45:56;;;;;;;;;;;;;;;22.53;51.32;100662.50;103476;1286;61377;-84
2023/05/28 11:48:21;;;;;;;;;;;;;;;22.52;51.41;100658.09;103509;1291;61922;-82
2023/05/28 11:50:48;;;;;;;;;;;;;;;22.52;51.36;100659.89;103342;1286;62283;-83
2023/05/28 11:53:13;;;;;;;;;;;;;;;22.52;51.40;100654.98;103415;1286;61260;-83
2023/05/28 11:55:39;;;;;;;;;;;;;;;22.52;51.39;100658.05;103245;1286;61987;-83
2023/05/28 11:58:05;;;;;;;;;;;;;;;22.52;51.36;100660.38;103478;1291;61423;-83
2023/05/28 12:00:37;;;;;;;;;;;;;;;22.52;51.30;100660.93;103390;1292;71958;-83
2023/05/28 12:03:03;;;;;;;;;;;;;;;22.52;51.38;100664.70;103434;1286;74512;-82
2023/05/28 12:05:35;;;;;;;;;;;;;;;22.53;51.30;100666.27;103491;1291;61386;-82
2023/05/28 12:08:01;;;;;;;;;;;;;;;22.53;51.33;100667.52;103521;1286;61323;-82
2023/05/28 12:10:27;;;;;;;;;;;;;;;22.52;51.37;100664.67;103434;1292;62507;-83
2023/05/28 12:12:55;;;;;;;;;;;;;;;22.53;51.30;100660.86;103347;1291;61368;-84
2023/05/28 12:15:24;;;;;;;;;;;;;;;22.53;51.33;100659.79;103455;1286;61342;-84
2023/05/28 12:17:57;;;;;;;;;;;;;;;22.54;51.30;100660.80;103341;1294;61441;-83
2023/05/28 12:20:25;;;;;;;;;;;;;;;22.54;51.32;100654.34;103507;1287;72352;-83
2023/05/28 12:23:01;;;;;;;;;;;;;;;22.54;51.32;100652.66;103460;1286;74566;-83